Main page
METAR-TAF:

METAR-TAF

Airports :

Dubai International Airport

Dubai, United Arab Emirates

latitude: 25-15-10N, longitude: 055-21-52E, elevation: 8 m

Current weather observation

The report was made 18 minutes ago, at 18:00 UTC
Wind 4 kt from the East, varying between Northeast and East/Southeast
Temperature 32°C
Humidity 43%
Pressure 1014 hPa
Visibility 10 km or more
no clouds below 1500 m and no cumulonimbus

METAR: OMDB 201800Z 08004KT 040V110 CAVOK 32/18 Q1014 NOSIG

Time: 22:18 (18:18 UTC)

Forecast

The report was made 1 hour and 27 minutes ago, at 16:51 UTC
Forecast valid from 20 at 18 UTC to 22 at 00 UTC
Wind 5 kt from the East
Visibility: 8000 m
Becoming
from 21 at 04 UTC to 21 at 06 UTC
Wind 10 kt from the South
Becoming
from 21 at 08 UTC to 21 at 10 UTC
Wind 13 kt from the North/Northwest
Becoming
from 21 at 15 UTC to 21 at 17 UTC
Wind 5 kt from the East

TAF: OMDB 201651Z 2018/2200 09005KT 8000 NSC BECMG 2104/2106 19010KT BECMG 2108/2110 34013KT BECMG 2115/2117 09005KT

Weather observations and forecasts of more than 4000 airports (METAR and TAF reports).

The available stations are represented by yellow and red dots on the map.

Hover mouse over dot to see the name of the station.

Then click to see weather observations and forecasts.

To change the map : click on the green buttons with a black cross to zoom in, on the green button with a dash to zoom out, or on the green arrows for adjacent maps.


METAR-TAF: